地図

経路データ

SID SEASON NUMBER BASIN SUBBASIN NAME ISO_TIME NATURE LAT LON WMO_WIND WMO_PRES WMO_AGENCY TRACK_TYPE DIST2LAND LANDFALL IFLAG USA_AGENCY USA_ATCF_ID USA_LAT USA_LON USA_RECORD USA_STATUS USA_WIND USA_PRES USA_SSHS USA_R34_NE USA_R34_SE USA_R34_SW USA_R34_NW USA_R50_NE USA_R50_SE USA_R50_SW USA_R50_NW USA_R64_NE USA_R64_SE USA_R64_SW USA_R64_NW USA_POCI USA_ROCI USA_RMW USA_EYE TOKYO_LAT TOKYO_LON TOKYO_GRADE TOKYO_WIND TOKYO_PRES TOKYO_R50_DIR TOKYO_R50_LONG TOKYO_R50_SHORT TOKYO_R30_DIR TOKYO_R30_LONG TOKYO_R30_SHORT TOKYO_LAND CMA_LAT CMA_LON CMA_CAT CMA_WIND CMA_PRES HKO_LAT HKO_LON HKO_CAT HKO_WIND HKO_PRES NEWDELHI_LAT NEWDELHI_LON NEWDELHI_GRADE NEWDELHI_WIND NEWDELHI_PRES NEWDELHI_CI NEWDELHI_DP NEWDELHI_POCI REUNION_LAT REUNION_LON REUNION_TYPE REUNION_WIND REUNION_PRES REUNION_TNUM REUNION_CI REUNION_RMW REUNION_R34_NE REUNION_R34_SE REUNION_R34_SW REUNION_R34_NW REUNION_R50_NE REUNION_R50_SE REUNION_R50_SW REUNION_R50_NW REUNION_R64_NE REUNION_R64_SE REUNION_R64_SW REUNION_R64_NW BOM_LAT BOM_LON BOM_TYPE BOM_WIND BOM_PRES BOM_TNUM BOM_CI BOM_RMW BOM_R34_NE BOM_R34_SE BOM_R34_SW BOM_R34_NW BOM_R50_NE BOM_R50_SE BOM_R50_SW BOM_R50_NW BOM_R64_NE BOM_R64_SE BOM_R64_SW BOM_R64_NW BOM_ROCI BOM_POCI BOM_EYE BOM_POS_METHOD BOM_PRES_METHOD NADI_LAT NADI_LON NADI_CAT NADI_WIND NADI_PRES WELLINGTON_LAT WELLINGTON_LON WELLINGTON_WIND WELLINGTON_PRES DS824_LAT DS824_LON DS824_STAGE DS824_WIND DS824_PRES TD9636_LAT TD9636_LON TD9636_STAGE TD9636_WIND TD9636_PRES TD9635_LAT TD9635_LON TD9635_WIND TD9635_PRES TD9635_ROCI NEUMANN_LAT NEUMANN_LON NEUMANN_CLASS NEUMANN_WIND NEUMANN_PRES MLC_LAT MLC_LON MLC_CLASS MLC_WIND MLC_PRES USA_GUST BOM_GUST BOM_GUST_PER REUNION_GUST REUNION_GUST_PER USA_SEAHGT USA_SEARAD_NE USA_SEARAD_SE USA_SEARAD_SW USA_SEARAD_NW STORM_SPEED STORM_DIR
1971231N13308 1971 94 NA NA CHLOE 1971-08-18 12:00:00 TS 13.0000 -52.5000 30 1007 hurdat_atl main 816 802 O_____________ hurdat_atl AL081971 13.0000 -52.5000 TD 30 1007 -1 25 274
1971231N13308 1971 94 NA NA CHLOE 1971-08-18 15:00:00 TS 13.0917 -53.7999 main 806 720 P_____________ AL081971 13.0917 -53.7999 TD 30 -1 24 275
1971231N13308 1971 94 NA NA CHLOE 1971-08-18 18:00:00 TS 13.2000 -55.0000 30 hurdat_atl main 710 617 O_____________ hurdat_atl AL081971 13.2000 -55.0000 TD 30 -1 22 277
1971231N13308 1971 94 NA NA CHLOE 1971-08-18 21:00:00 TS 13.3416 -56.0375 main 617 545 P_____________ AL081971 13.3416 -56.0375 TD 30 -1 20 279
1971231N13308 1971 94 NA NA CHLOE 1971-08-19 00:00:00 TS 13.5000 -57.0000 30 hurdat_atl main 536 460 O_____________ hurdat_atl AL081971 13.5000 -57.0000 TD 30 -1 20 279
1971231N13308 1971 94 NA NA CHLOE 1971-08-19 03:00:00 TS 13.6574 -58.0225 main 468 415 P_____________ AL081971 13.6574 -58.0225 TD 30 -1 20 279
1971231N13308 1971 94 NA NA CHLOE 1971-08-19 06:00:00 TS 13.8000 -59.0000 30 hurdat_atl main 409 377 O_____________ hurdat_atl AL081971 13.8000 -59.0000 TD 30 -1 18 278
1971231N13308 1971 94 NA CS CHLOE 1971-08-19 09:00:00 TS 13.9072 -59.9026 main 377 366 P_____________ AL081971 13.9072 -59.9026 TD 30 -1 17 277
1971231N13308 1971 94 NA CS CHLOE 1971-08-19 12:00:00 TS 14.0000 -60.7000 30 hurdat_atl main 370 369 O_____________ hurdat_atl AL081971 14.0000 -60.7000 TD 30 -1 14 278
1971231N13308 1971 94 NA CS CHLOE 1971-08-19 15:00:00 TS 14.1069 -61.3650 main 380 380 P_____________ AL081971 14.1069 -61.3650 TD 30 -1 13 279
1971231N13308 1971 94 NA CS CHLOE 1971-08-19 18:00:00 TS 14.2000 -62.0000 30 hurdat_atl main 392 391 O_____________ hurdat_atl AL081971 14.2000 -62.0000 TD 30 -1 13 275
1971231N13308 1971 94 NA CS CHLOE 1971-08-19 21:00:00 TS 14.2274 -62.7354 main 391 391 P_____________ AL081971 14.2274 -62.7354 TD 32 -1 15 274
1971231N13308 1971 94 NA CS CHLOE 1971-08-20 00:00:00 TS 14.3000 -63.5000 35 1004 hurdat_atl main 405 405 O_____________ hurdat_atl AL081971 14.3000 -63.5000 TS 35 1004 0 15 282
1971231N13308 1971 94 NA CS CHLOE 1971-08-20 03:00:00 TS 14.5423 -64.2496 main 427 368 P_____________ AL081971 14.5423 -64.2496 TS 40 0 15 289
1971231N13308 1971 94 NA CS CHLOE 1971-08-20 06:00:00 TS 14.8000 -65.0000 45 hurdat_atl main 368 339 O_____________ hurdat_atl AL081971 14.8000 -65.0000 TS 45 0 15 284
1971231N13308 1971 94 NA CS CHLOE 1971-08-20 09:00:00 TS 14.9075 -65.7729 main 338 324 P_____________ AL081971 14.9075 -65.7729 TS 47 0 15 278
1971231N13308 1971 94 NA CS CHLOE 1971-08-20 12:00:00 TS 15.0000 -66.5000 50 hurdat_atl main 326 302 O_____________ hurdat_atl AL081971 15.0000 -66.5000 TS 50 0 13 282
1971231N13308 1971 94 NA CS CHLOE 1971-08-20 15:00:00 TS 15.1692 -67.0779 main 302 283 P_____________ AL081971 15.1692 -67.0779 TS 52 0 12 289
1971231N13308 1971 94 NA CS CHLOE 1971-08-20 18:00:00 TS 15.4000 -67.7000 55 hurdat_atl main 284 272 O_____________ hurdat_atl AL081971 15.4000 -67.7000 TS 55 0 15 292
1971231N13308 1971 94 NA CS CHLOE 1971-08-20 21:00:00 TS 15.7299 -68.5394 main 279 251 P_____________ AL081971 15.7299 -68.5394 TS 52 0 18 289
1971231N13308 1971 94 NA CS CHLOE 1971-08-21 00:00:00 TS 16.0000 -69.5000 50 hurdat_atl main 257 198 O_____________ hurdat_atl AL081971 16.0000 -69.5000 TS 50 0 19 281
1971231N13308 1971 94 NA CS CHLOE 1971-08-21 03:00:00 TS 16.0822 -70.4851 main 193 170 P_____________ AL081971 16.0822 -70.4851 TS 45 0 19 270
1971231N13308 1971 94 NA CS CHLOE 1971-08-21 06:00:00 TS 16.0000 -71.5000 40 hurdat_atl main 179 179 O_____________ hurdat_atl AL081971 16.0000 -71.5000 TS 40 0 20 262
1971231N13308 1971 94 NA CS CHLOE 1971-08-21 09:00:00 TS 15.7875 -72.5379 main 233 233 P_____________ AL081971 15.7875 -72.5379 TS 35 0 20 255
1971231N13308 1971 94 NA CS CHLOE 1971-08-21 12:00:00 TS 15.5000 -73.5000 30 1007 hurdat_atl main 281 280 O_____________ hurdat_atl AL081971 15.5000 -73.5000 TD 30 1007 -1 18 252
1971231N13308 1971 94 NA CS CHLOE 1971-08-21 15:00:00 TS 15.2272 -74.3249 main 316 316 P_____________ AL081971 15.2272 -74.3249 TD 30 -1 15 251
1971231N13308 1971 94 NA CS CHLOE 1971-08-21 18:00:00 TS 15.0000 -75.0000 30 hurdat_atl main 348 341 O_____________ hurdat_atl AL081971 15.0000 -75.0000 TD 30 -1 12 253
1971231N13308 1971 94 NA CS CHLOE 1971-08-21 21:00:00 TS 14.8621 -75.5373 main 343 341 P_____________ AL081971 14.8621 -75.5373 TD 27 -1 10 258
1971231N13308 1971 94 NA CS CHLOE 1971-08-22 00:00:00 TS 14.8000 -76.0000 25 hurdat_atl main 347 333 O_____________ hurdat_atl AL081971 14.8000 -76.0000 TD 25 -1 9 264
1971231N13308 1971 94 NA CS CHLOE 1971-08-22 03:00:00 TS 14.7699 -76.5000 main 333 325 P_____________ AL081971 14.7699 -76.5000 TD 25 -1 10 270
1971231N13308 1971 94 NA CS CHLOE 1971-08-22 06:00:00 TS 14.8000 -77.0000 25 hurdat_atl main 325 313 O_____________ hurdat_atl AL081971 14.8000 -77.0000 TD 25 -1 10 277
1971231N13308 1971 94 NA CS CHLOE 1971-08-22 09:00:00 TS 14.8849 -77.4999 main 315 308 P_____________ AL081971 14.8849 -77.4999 TD 25 -1 10 282
1971231N13308 1971 94 NA CS CHLOE 1971-08-22 12:00:00 TS 15.0000 -78.0000 25 hurdat_atl main 314 313 O_____________ hurdat_atl AL081971 15.0000 -78.0000 TD 25 -1 10 282
1971231N13308 1971 94 NA CS CHLOE 1971-08-22 15:00:00 TS 15.0849 -78.5002 main 322 322 P_____________ AL081971 15.0849 -78.5002 TD 25 -1 10 282
1971231N13308 1971 94 NA CS CHLOE 1971-08-22 18:00:00 TS 15.2000 -79.0000 25 hurdat_atl main 332 330 O_____________ hurdat_atl AL081971 15.2000 -79.0000 TD 25 -1 10 287
1971231N13308 1971 94 NA CS CHLOE 1971-08-22 21:00:00 TS 15.3849 -79.5000 main 334 331 P_____________ AL081971 15.3849 -79.5000 TD 25 -1 10 293
1971231N13308 1971 94 NA CS CHLOE 1971-08-23 00:00:00 TS 15.6000 -80.0000 25 hurdat_atl main 337 292 O_____________ hurdat_atl AL081971 15.6000 -80.0000 TD 25 -1 10 293
1971231N13308 1971 94 NA CS CHLOE 1971-08-23 03:00:00 TS 15.7924 -80.5002 main 292 251 P_____________ AL081971 15.7924 -80.5002 TD 25 -1 10 293
1971231N13308 1971 94 NA CS CHLOE 1971-08-23 06:00:00 TS 16.0000 -81.0000 25 hurdat_atl main 251 217 O_____________ hurdat_atl AL081971 16.0000 -81.0000 TD 25 -1 11 295
1971231N13308 1971 94 NA CS CHLOE 1971-08-23 09:00:00 TS 16.2424 -81.5001 main 217 201 P_____________ AL081971 16.2424 -81.5001 TD 25 -1 11 298
1971231N13308 1971 94 NA CS CHLOE 1971-08-23 12:00:00 TS 16.5000 -82.0000 25 hurdat_atl main 201 183 O_____________ hurdat_atl AL081971 16.5000 -82.0000 TD 25 -1 11 298
1971231N13308 1971 94 NA CS CHLOE 1971-08-23 15:00:00 TS 16.7574 -82.5001 main 193 183 P_____________ AL081971 16.7574 -82.5001 TD 25 -1 11 298
1971231N13308 1971 94 NA CS CHLOE 1971-08-23 18:00:00 TS 17.0000 -83.0000 25 hurdat_atl main 189 178 O_____________ hurdat_atl AL081971 17.0000 -83.0000 TD 25 -1 11 295
1971231N13308 1971 94 NA CS CHLOE 1971-08-23 21:00:00 TS 17.2074 -83.5002 main 178 173 P_____________ AL081971 17.2074 -83.5002 TD 25 -1 10 293
1971231N13308 1971 94 NA CS CHLOE 1971-08-24 00:00:00 TS 17.4000 -84.0000 25 1007 hurdat_atl main 181 179 O_____________ hurdat_atl AL081971 17.4000 -84.0000 TD 25 1007 -1 10 294
1971231N13308 1971 94 NA CS CHLOE 1971-08-24 03:00:00 TS 17.6224 -84.4999 main 191 190 P_____________ AL081971 17.6224 -84.4999 TD 25 -1 10 293
1971231N13308 1971 94 NA CS CHLOE 1971-08-24 06:00:00 TS 17.8000 -85.0000 25 hurdat_atl main 212 212 O_____________ hurdat_atl AL081971 17.8000 -85.0000 TD 25 -1 10 285
1971231N13308 1971 94 NA CS CHLOE 1971-08-24 09:00:00 TS 17.8725 -85.5152 main 223 193 P_____________ AL081971 17.8725 -85.5152 TD 25 -1 10 276
1971231N13308 1971 94 NA CS CHLOE 1971-08-24 12:00:00 TS 17.9000 -86.0000 25 hurdat_atl main 193 149 O_____________ hurdat_atl AL081971 17.9000 -86.0000 TD 25 -1 9 276
1971231N13308 1971 94 NA CS CHLOE 1971-08-24 15:00:00 TS 17.9574 -86.4225 main 149 108 P_____________ AL081971 17.9574 -86.4225 TD 25 -1 8 277
1971231N13308 1971 94 NA CS CHLOE 1971-08-24 18:00:00 TS 18.0000 -86.8000 25 hurdat_atl main 108 67 O_____________ hurdat_atl AL081971 18.0000 -86.8000 TD 25 -1 7 274
1971231N13308 1971 94 NA CS CHLOE 1971-08-24 21:00:00 TS 18.0075 -87.1725 main 67 38 P_____________ AL081971 18.0075 -87.1725 TD 25 -1 7 270
1971231N13308 1971 94 NA CS CHLOE 1971-08-25 00:00:00 TS 18.0000 -87.5000 25 hurdat_atl main 38 22 O_____________ hurdat_atl AL081971 18.0000 -87.5000 TD 25 -1 6 269
1971231N13308 1971 94 NA CS CHLOE 1971-08-25 03:00:00 TS 17.9999 -87.7650 main 22 15 P_____________ AL081971 17.9999 -87.7650 TD 25 -1 5 270
1971231N13308 1971 94 NA CS CHLOE 1971-08-25 06:00:00 TS 18.0000 -88.0000 25 hurdat_atl main 15 0 O_____________ hurdat_atl AL081971 18.0000 -88.0000 TD 25 -1 5 270
1971231N13308 1971 94 NA NA CHLOE 1971-08-25 09:00:00 TS 18.0001 -88.2450 main 0 0 P_____________ AL081971 18.0001 -88.2450 TD 25 -1 5 270
1971231N13308 1971 94 NA NA CHLOE 1971-08-25 12:00:00 TS 18.0000 -88.5000 25 hurdat_atl main 0 O_____________ hurdat_atl AL081971 18.0000 -88.5000 TD 25 -1 5 270

IBTrACS Databaseについて

本データベースは、米国NOAAが公開する1842年以降の世界の熱帯低気圧のベストトラックデータアーカイブInternational Best Track Archive for Climate Stewardship (IBTrACS)を、ウェブで閲覧しやすい形式に変換したものです。

最終更新日:2021-10-19